createdAt,value
2022-08-26T00:01:45.042Z,83.76
2022-08-26T00:04:12.557Z,83.27
2022-08-26T00:06:42.545Z,83.34
2022-08-26T00:09:13.567Z,83.71
2022-08-26T00:11:43.300Z,83.59
2022-08-26T00:14:09.828Z,83.36
2022-08-26T00:16:36.771Z,82.73
2022-08-26T00:19:07.604Z,82.99
2022-08-26T00:21:35.100Z,83.30
2022-08-26T00:24:04.331Z,84.89
2022-08-26T00:26:31.252Z,85.67
2022-08-26T00:28:57.607Z,84.94
2022-08-26T00:31:24.411Z,85.29
2022-08-26T00:33:50.837Z,85.17
2022-08-26T00:36:20.234Z,85.03
2022-08-26T00:38:47.819Z,85.30
2022-08-26T00:41:14.620Z,85.11
2022-08-26T00:43:47.371Z,85.02
2022-08-26T00:46:19.436Z,84.70
2022-08-26T00:48:49.268Z,84.40
2022-08-26T00:51:19.612Z,84.10
2022-08-26T00:53:52.363Z,84.57
2022-08-26T00:56:36.167Z,84.36
2022-08-26T00:59:08.267Z,84.68
2022-08-26T01:01:36.205Z,84.73
2022-08-26T01:04:02.915Z,84.31
2022-08-26T01:06:30.149Z,84.29
2022-08-26T01:08:56.949Z,85.19
2022-08-26T01:11:23.920Z,84.89
2022-08-26T01:13:55.102Z,84.72
2022-08-26T01:16:23.025Z,84.38
2022-08-26T01:18:49.491Z,84.63
2022-08-26T01:21:34.352Z,85.44
2022-08-26T01:24:00.680Z,85.82
2022-08-26T01:26:29.620Z,86.41
2022-08-26T01:28:59.976Z,86.07
2022-08-26T01:31:29.960Z,85.48
2022-08-26T01:34:15.284Z,85.08
2022-08-26T01:36:42.100Z,84.39
2022-08-26T01:39:09.379Z,85.03
2022-08-26T01:41:39.122Z,85.69
2022-08-26T01:44:09.909Z,85.50
2022-08-26T01:46:36.878Z,84.79
2022-08-26T01:49:06.755Z,84.58
2022-08-26T01:51:39.252Z,85.03
2022-08-26T01:54:08.410Z,84.85
2022-08-26T01:56:39.235Z,84.47
2022-08-26T01:59:10.823Z,84.41
2022-08-26T02:01:38.727Z,84.49
2022-08-26T02:04:27.420Z,85.00
2022-08-26T02:06:56.387Z,85.42
2022-08-26T02:09:24.351Z,85.48
2022-08-26T02:11:52.747Z,85.39
2022-08-26T02:14:26.972Z,85.31
2022-08-26T02:16:54.690Z,85.03
2022-08-26T02:19:27.535Z,84.92
2022-08-26T02:21:54.447Z,84.97
2022-08-26T02:24:24.560Z,84.88
2022-08-26T02:26:54.483Z,85.19
2022-08-26T02:29:32.770Z,85.13
2022-08-26T02:31:59.620Z,85.33
2022-08-26T02:34:34.756Z,85.08
2022-08-26T02:37:05.446Z,85.01
2022-08-26T02:39:33.143Z,84.87
2022-08-26T02:41:59.892Z,84.98
2022-08-26T02:44:27.578Z,84.94
2022-08-26T02:46:54.550Z,84.87
2022-08-26T02:49:23.589Z,84.75
2022-08-26T02:51:51.527Z,85.52
2022-08-26T02:54:20.339Z,85.47
2022-08-26T02:56:47.316Z,84.89
2022-08-26T02:59:14.028Z,84.87
2022-08-26T03:01:42.182Z,85.52
2022-08-26T03:04:12.130Z,85.80
2022-08-26T03:06:39.035Z,85.59
2022-08-26T03:09:07.524Z,85.71
2022-08-26T03:11:34.636Z,85.80
2022-08-26T03:14:03.431Z,85.87
2022-08-26T03:16:37.997Z,85.98
2022-08-26T03:19:08.115Z,85.42
2022-08-26T03:21:36.546Z,85.79
2022-08-26T03:24:04.094Z,85.94
2022-08-26T03:26:31.057Z,85.82
2022-08-26T03:29:16.247Z,86.12
2022-08-26T03:31:43.772Z,85.82
2022-08-26T03:34:13.759Z,85.38
2022-08-26T03:36:41.622Z,85.14
2022-08-26T03:39:08.350Z,85.28
2022-08-26T03:41:36.252Z,85.43
2022-08-26T03:44:04.488Z,85.31
2022-08-26T03:46:33.143Z,85.11
2022-08-26T03:49:01.814Z,85.76
2022-08-26T03:51:29.167Z,85.61
2022-08-26T03:53:57.065Z,85.48
2022-08-26T03:56:23.698Z,85.45
2022-08-26T03:58:50.367Z,85.63
2022-08-26T04:01:17.988Z,86.39
2022-08-26T04:03:58.236Z,86.22
2022-08-26T04:06:30.588Z,85.93
2022-08-26T04:09:00.002Z,86.01
2022-08-26T04:11:34.293Z,85.78
2022-08-26T04:14:04.895Z,85.24
2022-08-26T04:16:32.405Z,85.92
2022-08-26T04:18:59.578Z,86.06
2022-08-26T04:21:27.323Z,85.59
2022-08-26T04:23:54.622Z,85.24
2022-08-26T04:26:23.357Z,85.17
2022-08-26T04:28:51.843Z,84.77
2022-08-26T04:31:19.635Z,85.48
2022-08-26T04:33:49.638Z,85.51
2022-08-26T04:36:17.384Z,85.75
2022-08-26T04:38:45.863Z,85.42
2022-08-26T04:41:15.214Z,85.38
2022-08-26T04:43:44.192Z,84.77
2022-08-26T04:46:13.026Z,84.87
2022-08-26T04:48:41.517Z,84.24
2022-08-26T04:51:09.332Z,84.02
2022-08-26T04:53:36.695Z,83.92
2022-08-26T04:56:04.793Z,83.21
2022-08-26T04:58:32.341Z,83.17
2022-08-26T05:00:59.160Z,84.15
2022-08-26T05:03:30.590Z,84.39
2022-08-26T05:05:58.480Z,85.48
2022-08-26T05:08:25.303Z,85.30
2022-08-26T05:10:57.663Z,84.34
2022-08-26T05:13:27.397Z,84.08
2022-08-26T05:15:54.695Z,83.85
2022-08-26T05:18:27.967Z,83.60
2022-08-26T05:20:54.869Z,83.45
2022-08-26T05:23:23.594Z,83.54
2022-08-26T05:25:57.012Z,83.71
2022-08-26T05:28:26.845Z,83.31
2022-08-26T05:30:54.719Z,82.97
2022-08-26T05:33:21.958Z,82.64
2022-08-26T05:35:48.439Z,82.45
2022-08-26T05:38:19.115Z,82.85
2022-08-26T05:40:52.770Z,82.55
2022-08-26T05:43:20.258Z,82.23
2022-08-26T05:45:49.744Z,82.32
2022-08-26T05:48:22.562Z,82.06
2022-08-26T05:50:52.292Z,82.37
2022-08-26T05:53:21.185Z,82.08
2022-08-26T05:55:52.331Z,80.21
2022-08-26T05:58:22.120Z,80.17
2022-08-26T06:00:58.907Z,80.72
2022-08-26T06:03:26.711Z,80.32
2022-08-26T06:05:53.429Z,79.62
2022-08-26T06:08:21.239Z,76.20
2022-08-26T06:10:54.301Z,72.59
2022-08-26T06:13:23.920Z,68.38
2022-08-26T06:15:51.974Z,64.80
2022-08-26T06:18:27.219Z,63.70
2022-08-26T06:20:57.835Z,63.08
2022-08-26T06:23:44.885Z,64.97
2022-08-26T06:26:12.829Z,66.69
2022-08-26T06:28:39.280Z,68.73
2022-08-26T06:31:06.032Z,71.03
2022-08-26T06:33:33.772Z,71.96
2022-08-26T06:36:01.051Z,73.59
2022-08-26T06:38:27.747Z,73.15
2022-08-26T06:40:55.469Z,72.66
2022-08-26T06:43:25.051Z,71.01
2022-08-26T06:45:59.798Z,69.76
2022-08-26T06:48:26.956Z,69.63
2022-08-26T06:51:03.271Z,67.71
2022-08-26T06:53:29.656Z,64.89
2022-08-26T06:55:56.375Z,64.47
2022-08-26T06:58:23.576Z,63.74
2022-08-26T07:00:51.382Z,62.58
2022-08-26T07:03:18.075Z,61.83
2022-08-26T07:05:44.634Z,60.11
2022-08-26T07:08:12.408Z,59.77
2022-08-26T07:10:38.847Z,55.55
2022-08-26T07:13:05.249Z,53.30
2022-08-26T07:15:36.256Z,52.77
2022-08-26T07:18:02.973Z,52.32
2022-08-26T07:20:29.395Z,50.99
2022-08-26T07:22:56.499Z,49.02
2022-08-26T07:25:24.215Z,46.52
2022-08-26T07:27:54.040Z,47.34
2022-08-26T07:30:21.861Z,45.26
2022-08-26T07:32:48.268Z,46.04
2022-08-26T07:35:14.907Z,48.57
2022-08-26T07:37:42.695Z,50.10
2022-08-26T07:40:09.770Z,50.66
2022-08-26T07:42:36.185Z,50.79
2022-08-26T07:45:02.787Z,50.79
2022-08-26T07:47:29.313Z,51.12
2022-08-26T07:49:57.322Z,49.86
2022-08-26T07:52:27.187Z,48.14
2022-08-26T07:54:55.683Z,48.22
2022-08-26T07:57:22.049Z,48.01
2022-08-26T07:59:51.304Z,50.28
2022-08-26T08:02:17.787Z,50.26
2022-08-26T08:04:45.323Z,50.39
2022-08-26T08:07:12.442Z,51.65
2022-08-26T08:09:40.709Z,49.89
2022-08-26T08:12:08.259Z,47.48
2022-08-26T08:14:40.712Z,44.11
2022-08-26T08:17:08.815Z,46.27
2022-08-26T08:19:38.937Z,46.88
2022-08-26T08:22:17.500Z,47.77
2022-08-26T08:24:46.807Z,47.08
2022-08-26T08:27:18.116Z,44.57
2022-08-26T08:29:48.639Z,45.44
2022-08-26T08:32:15.732Z,45.35
2022-08-26T08:37:14.674Z,44.30
2022-08-26T08:39:41.768Z,42.35
2022-08-26T08:42:35.252Z,41.13
2022-08-26T08:45:15.451Z,39.61
2022-08-26T08:47:51.559Z,40.30
2022-08-26T08:50:33.765Z,40.56
2022-08-26T08:53:23.651Z,41.33
2022-08-26T08:56:15.592Z,41.14
2022-08-26T08:58:52.071Z,41.59
2022-08-26T09:01:24.983Z,37.44
2022-08-26T09:04:12.016Z,36.43
2022-08-26T09:06:45.924Z,35.82
2022-08-26T09:09:28.184Z,35.20
2022-08-26T09:11:56.743Z,36.75
2022-08-26T09:14:23.261Z,36.12
2022-08-26T09:17:16.030Z,34.34
2022-08-26T09:19:49.268Z,35.75
2022-08-26T09:22:34.987Z,34.53
2022-08-26T09:25:11.106Z,35.32
2022-08-26T09:27:42.711Z,33.53
2022-08-26T09:30:13.416Z,35.58
2022-08-26T09:32:40.416Z,37.39
2022-08-26T09:35:23.807Z,34.28
2022-08-26T09:40:35.036Z,38.65
2022-08-26T09:43:22.498Z,43.60
2022-08-26T09:45:59.106Z,41.94
2022-08-26T09:48:36.409Z,43.03
2022-08-26T09:51:07.802Z,37.88
2022-08-26T09:53:49.333Z,35.51
2022-08-26T09:56:18.253Z,37.07
2022-08-26T09:58:47.239Z,37.04
2022-08-26T10:01:26.126Z,33.20
2022-08-26T10:03:52.618Z,32.67
2022-08-26T10:06:21.712Z,33.60
2022-08-26T10:08:55.299Z,31.21
2022-08-26T10:11:36.578Z,31.30
2022-08-26T10:14:18.187Z,30.09
2022-08-26T10:16:56.446Z,28.15
2022-08-26T10:19:41.697Z,28.92
2022-08-26T10:22:35.088Z,35.33
2022-08-26T10:25:06.456Z,34.79
2022-08-26T10:28:03.975Z,37.22
2022-08-26T10:30:37.396Z,33.71
2022-08-26T10:33:08.574Z,34.60
2022-08-26T10:35:40.704Z,31.67
2022-08-26T10:38:14.812Z,32.86
2022-08-26T10:40:47.204Z,35.57
2022-08-26T10:43:22.404Z,32.69
2022-08-26T10:45:56.944Z,30.92
2022-08-26T10:48:44.280Z,30.98
2022-08-26T10:51:13.769Z,31.59
2022-08-26T10:53:51.638Z,30.75
2022-08-26T10:56:46.368Z,29.14
2022-08-26T10:59:18.919Z,29.45
2022-08-26T11:01:50.967Z,29.91
2022-08-26T11:04:18.727Z,29.49
2022-08-26T11:06:50.010Z,29.84
2022-08-26T11:09:47.867Z,31.50
2022-08-26T11:12:35.027Z,35.79
2022-08-26T11:15:06.292Z,35.75
2022-08-26T11:17:55.383Z,37.71
2022-08-26T11:20:27.733Z,37.54
2022-08-26T11:22:55.970Z,37.64
2022-08-26T11:25:29.938Z,40.40
2022-08-26T11:28:00.684Z,37.79
2022-08-26T11:30:36.103Z,36.28
2022-08-26T11:33:02.622Z,32.82
2022-08-26T11:35:28.980Z,31.40
2022-08-26T11:38:22.043Z,33.47
2022-08-26T11:40:57.899Z,32.77
2022-08-26T11:43:29.834Z,32.89
2022-08-26T11:46:05.723Z,34.63
2022-08-26T11:48:37.403Z,32.00
2022-08-26T11:51:08.811Z,31.96
2022-08-26T11:53:38.675Z,31.44
2022-08-26T11:56:10.339Z,31.13
2022-08-26T11:58:45.626Z,29.72
2022-08-26T12:01:21.501Z,33.23
2022-08-26T12:03:50.587Z,33.79
2022-08-26T12:06:22.911Z,31.86
2022-08-26T12:08:50.423Z,34.32
2022-08-26T12:11:33.234Z,33.29
2022-08-26T12:14:03.846Z,31.57
2022-08-26T12:16:37.456Z,30.73
2022-08-26T12:19:26.081Z,26.80
2022-08-26T12:22:25.040Z,31.47
2022-08-26T12:24:53.346Z,34.59
2022-08-26T12:27:31.703Z,33.72
2022-08-26T12:30:15.390Z,32.44
2022-08-26T12:32:57.115Z,30.10
2022-08-26T12:35:25.352Z,31.10
2022-08-26T12:37:54.413Z,30.92
2022-08-26T12:40:35.961Z,32.30
2022-08-26T12:43:06.283Z,32.29
2022-08-26T12:45:43.012Z,31.84
2022-08-26T12:48:11.797Z,31.17
2022-08-26T12:50:45.847Z,28.13
2022-08-26T12:53:12.719Z,29.30
2022-08-26T12:55:43.655Z,28.23
2022-08-26T12:58:11.937Z,26.97
2022-08-26T13:00:42.726Z,29.07
2022-08-26T13:03:48.555Z,33.61
2022-08-26T13:06:22.539Z,36.06
2022-08-26T13:08:51.640Z,36.82
2022-08-26T13:11:41.037Z,41.25
2022-08-26T13:14:21.242Z,42.96
2022-08-26T13:16:51.643Z,44.63
2022-08-26T13:19:21.309Z,46.74
2022-08-26T13:21:52.767Z,46.99
2022-08-26T13:24:28.548Z,46.42
2022-08-26T13:26:55.015Z,46.39
2022-08-26T13:29:22.043Z,46.41
2022-08-26T13:31:49.121Z,47.05
2022-08-26T13:34:19.062Z,47.85
2022-08-26T13:36:47.175Z,49.07
2022-08-26T13:39:13.755Z,51.97
2022-08-26T13:41:40.247Z,56.65
2022-08-26T13:44:07.458Z,60.26
2022-08-26T13:46:34.120Z,66.13
2022-08-26T13:49:00.787Z,68.47
2022-08-26T13:51:27.875Z,67.28
2022-08-26T13:53:54.825Z,66.75
2022-08-26T13:56:22.539Z,69.24
2022-08-26T13:58:49.636Z,75.58
2022-08-26T14:01:17.431Z,78.37
2022-08-26T14:03:43.986Z,80.29
2022-08-26T14:06:10.585Z,79.62
2022-08-26T14:08:38.384Z,80.14
2022-08-26T14:11:05.132Z,80.28
2022-08-26T14:13:31.919Z,79.43
2022-08-26T14:16:01.323Z,84.05
2022-08-26T14:18:38.475Z,81.96
2022-08-26T14:21:11.312Z,82.78
2022-08-26T14:23:38.220Z,81.13
2022-08-26T14:26:08.078Z,81.41
2022-08-26T14:28:35.280Z,82.81
2022-08-26T14:31:03.612Z,82.44
2022-08-26T14:33:33.840Z,81.90
2022-08-26T14:36:20.127Z,82.20
2022-08-26T14:38:47.795Z,82.67
2022-08-26T14:41:17.121Z,81.88
2022-08-26T14:44:08.598Z,80.88
2022-08-26T14:46:43.235Z,81.93
2022-08-26T14:49:10.870Z,80.38
2022-08-26T14:51:37.874Z,80.41
2022-08-26T14:54:13.825Z,80.38
2022-08-26T14:56:43.315Z,79.93
2022-08-26T14:59:10.370Z,80.46
2022-08-26T15:01:37.542Z,80.15
2022-08-26T15:04:04.315Z,80.20
2022-08-26T15:06:31.744Z,80.31
2022-08-26T15:08:58.994Z,80.97
2022-08-26T15:11:26.848Z,81.86
2022-08-26T15:13:53.557Z,81.65
2022-08-26T15:16:21.233Z,80.91
2022-08-26T15:18:48.207Z,81.20
2022-08-26T15:21:15.177Z,80.35
2022-08-26T15:23:42.940Z,80.48
2022-08-26T15:26:15.516Z,79.08
2022-08-26T15:28:43.163Z,79.54
2022-08-26T15:31:10.432Z,80.63
2022-08-26T15:33:37.758Z,80.44
2022-08-26T15:36:05.909Z,80.87
2022-08-26T15:38:37.334Z,81.62
2022-08-26T15:41:06.899Z,81.60
2022-08-26T15:43:33.360Z,79.95
2022-08-26T15:45:59.889Z,79.66
2022-08-26T15:48:27.033Z,79.51
2022-08-26T15:50:56.318Z,80.16
2022-08-26T15:53:23.691Z,78.96
2022-08-26T15:55:53.448Z,78.97
2022-08-26T15:58:20.576Z,80.14
2022-08-26T16:00:46.935Z,80.18
2022-08-26T16:03:13.731Z,79.65
2022-08-26T16:05:43.614Z,79.95
2022-08-26T16:08:11.309Z,79.87
2022-08-26T16:10:41.204Z,80.99
2022-08-26T16:13:09.388Z,80.68
2022-08-26T16:15:38.838Z,81.75
2022-08-26T16:18:07.254Z,81.55
2022-08-26T16:20:36.254Z,81.52
2022-08-26T16:23:04.332Z,81.35
2022-08-26T16:25:31.336Z,81.78
2022-08-26T16:27:58.344Z,82.01
2022-08-26T16:30:25.648Z,82.02
2022-08-26T16:32:52.502Z,81.01
2022-08-26T16:35:18.854Z,80.45
2022-08-26T16:37:45.735Z,80.76
2022-08-26T16:40:12.709Z,80.24
2022-08-26T16:42:39.116Z,80.94
2022-08-26T16:45:06.487Z,81.33
2022-08-26T16:47:36.666Z,81.60
2022-08-26T16:50:06.458Z,81.54
2022-08-26T16:52:33.074Z,81.09
2022-08-26T16:54:59.966Z,82.67
2022-08-26T16:57:26.407Z,83.37
2022-08-26T16:59:52.799Z,84.35
2022-08-26T17:02:20.451Z,83.59
2022-08-26T17:04:47.301Z,84.84
2022-08-26T17:07:16.975Z,84.78
2022-08-26T17:09:43.711Z,84.33
2022-08-26T17:12:10.079Z,83.53
2022-08-26T17:14:37.142Z,83.69
2022-08-26T17:17:04.715Z,83.85
2022-08-26T17:19:39.065Z,84.10
2022-08-26T17:22:09.085Z,83.77
2022-08-26T17:24:35.509Z,83.68
2022-08-26T17:27:01.864Z,83.76
2022-08-26T17:29:28.582Z,85.19
2022-08-26T17:31:55.287Z,79.59
2022-08-26T17:34:22.579Z,77.08
2022-08-26T17:36:50.277Z,76.31
2022-08-26T17:39:17.006Z,76.04
2022-08-26T17:41:43.981Z,75.41
2022-08-26T17:44:11.231Z,74.69
2022-08-26T17:46:38.488Z,76.35
2022-08-26T17:49:05.551Z,75.71
2022-08-26T17:51:32.750Z,76.74
2022-08-26T17:53:59.136Z,77.22
2022-08-26T17:56:28.971Z,77.34
2022-08-26T17:59:04.049Z,77.13
2022-08-26T18:01:31.891Z,76.13
2022-08-26T18:04:00.521Z,76.80
2022-08-26T18:06:28.739Z,77.96
2022-08-26T18:08:55.338Z,79.12
2022-08-26T18:11:23.475Z,79.18
2022-08-26T18:13:50.242Z,79.52
2022-08-26T18:16:18.078Z,79.73
2022-08-26T18:18:45.313Z,80.07
2022-08-26T18:21:22.189Z,80.03
2022-08-26T18:23:49.715Z,80.64
2022-08-26T18:26:28.454Z,80.98
2022-08-26T18:28:55.383Z,81.18
2022-08-26T18:31:21.881Z,81.92
2022-08-26T18:33:48.336Z,81.85
2022-08-26T18:36:27.067Z,82.13
2022-08-26T18:38:54.582Z,81.04
2022-08-26T18:41:23.896Z,80.37
2022-08-26T18:43:52.933Z,79.94
2022-08-26T18:46:22.428Z,80.37
2022-08-26T18:48:49.061Z,80.91
2022-08-26T18:51:19.723Z,80.78
2022-08-26T18:53:46.709Z,80.56
2022-08-26T18:56:15.426Z,80.75
2022-08-26T18:58:44.564Z,81.65
2022-08-26T19:01:13.498Z,81.41
2022-08-26T19:03:40.250Z,80.19
2022-08-26T19:06:06.928Z,77.99
2022-08-26T19:08:33.759Z,78.18
2022-08-26T19:11:00.567Z,78.09
2022-08-26T19:13:26.999Z,78.29
2022-08-26T19:15:53.762Z,77.76
2022-08-26T19:18:20.115Z,78.37
2022-08-26T19:20:47.830Z,78.00
2022-08-26T19:23:30.919Z,78.33
2022-08-26T19:25:58.904Z,78.31
2022-08-26T19:28:25.286Z,78.81
2022-08-26T19:30:53.226Z,79.36
2022-08-26T19:33:19.826Z,79.23
2022-08-26T19:35:46.223Z,79.41
2022-08-26T19:38:13.585Z,79.38
2022-08-26T19:40:40.280Z,79.52
2022-08-26T19:43:07.251Z,80.29
2022-08-26T19:45:34.202Z,80.94
2022-08-26T19:48:00.770Z,80.66
2022-08-26T19:50:29.431Z,81.74
2022-08-26T19:52:56.107Z,82.23
2022-08-26T19:55:23.595Z,82.29
2022-08-26T19:57:52.106Z,83.27
2022-08-26T20:00:24.518Z,83.18
2022-08-26T20:02:52.067Z,82.74
2022-08-26T20:05:21.446Z,83.32
2022-08-26T20:07:49.615Z,83.73
2022-08-26T20:10:18.430Z,82.52
2022-08-26T20:12:44.804Z,82.93
2022-08-26T20:15:13.677Z,82.89
2022-08-26T20:17:41.739Z,82.59
2022-08-26T20:20:33.474Z,82.98
2022-08-26T20:23:02.539Z,83.03
2022-08-26T20:25:29.729Z,83.03
2022-08-26T20:27:56.116Z,83.19
2022-08-26T20:30:23.167Z,82.51
2022-08-26T20:32:49.619Z,82.25
2022-08-26T20:35:16.259Z,82.55
2022-08-26T20:37:43.558Z,82.58
2022-08-26T20:40:12.377Z,83.13
2022-08-26T20:42:38.852Z,83.68
2022-08-26T20:45:08.223Z,84.17
2022-08-26T20:47:34.602Z,84.36
2022-08-26T20:50:02.295Z,83.51
2022-08-26T20:52:29.010Z,82.43
2022-08-26T20:54:55.428Z,83.49
2022-08-26T20:57:22.197Z,83.74
2022-08-26T20:59:49.502Z,83.83
2022-08-26T21:02:16.078Z,84.22
2022-08-26T21:04:42.517Z,83.83
2022-08-26T21:07:09.343Z,83.78
2022-08-26T21:09:35.731Z,83.13
2022-08-26T21:12:02.731Z,81.98
2022-08-26T21:14:29.130Z,81.30
2022-08-26T21:16:56.438Z,81.98
2022-08-26T21:19:23.153Z,81.06
2022-08-26T21:21:49.872Z,81.52
2022-08-26T21:24:17.449Z,82.04
2022-08-26T21:26:44.439Z,82.82
2022-08-26T21:29:11.974Z,82.78
2022-08-26T21:31:44.879Z,82.04
2022-08-26T21:34:13.262Z,83.24
2022-08-26T21:36:40.056Z,82.87
2022-08-26T21:39:11.232Z,83.60
2022-08-26T21:41:39.366Z,84.64
2022-08-26T21:44:06.398Z,83.35
2022-08-26T21:46:36.213Z,83.08
2022-08-26T21:49:05.217Z,83.32
2022-08-26T21:51:34.706Z,82.47
2022-08-26T21:54:05.606Z,82.80
2022-08-26T21:56:37.048Z,82.70
2022-08-26T21:59:03.519Z,82.95
2022-08-26T22:01:32.457Z,82.50
2022-08-26T22:03:59.315Z,82.37
2022-08-26T22:06:27.413Z,82.62
2022-08-26T22:08:54.408Z,83.02
2022-08-26T22:11:20.842Z,83.06
2022-08-26T22:13:48.478Z,83.06
2022-08-26T22:16:15.774Z,83.44
2022-08-26T22:18:45.725Z,83.47
2022-08-26T22:21:16.290Z,82.92
2022-08-26T22:23:43.475Z,83.31
2022-08-26T22:26:12.063Z,83.04
2022-08-26T22:28:39.539Z,82.79
2022-08-26T22:31:08.346Z,82.73
2022-08-26T22:33:34.712Z,83.28
2022-08-26T22:36:01.539Z,84.21
2022-08-26T22:38:27.906Z,85.18
2022-08-26T22:40:56.419Z,85.76
2022-08-26T22:43:28.843Z,85.38
2022-08-26T22:45:56.073Z,85.25
2022-08-26T22:48:24.407Z,85.13
2022-08-26T22:50:55.268Z,85.74
2022-08-26T22:53:24.718Z,86.13
2022-08-26T22:55:51.066Z,87.36
2022-08-26T22:58:18.516Z,87.69
2022-08-26T23:00:47.389Z,88.01
2022-08-26T23:03:15.895Z,87.34
2022-08-26T23:05:43.560Z,88.37
2022-08-26T23:08:11.167Z,87.82
2022-08-26T23:10:42.331Z,88.81
2022-08-26T23:13:09.508Z,88.90
2022-08-26T23:15:36.351Z,89.23
2022-08-26T23:18:04.094Z,88.60
2022-08-26T23:20:31.143Z,88.02
2022-08-26T23:22:58.108Z,87.34
2022-08-26T23:25:25.089Z,86.80
2022-08-26T23:27:52.022Z,85.99
2022-08-26T23:30:22.307Z,86.25
2022-08-26T23:32:48.746Z,86.33
2022-08-26T23:35:15.397Z,85.98
2022-08-26T23:37:45.086Z,85.56
2022-08-26T23:40:17.596Z,85.21
2022-08-26T23:42:44.238Z,85.36
2022-08-26T23:45:13.188Z,86.19
2022-08-26T23:47:41.033Z,86.19
2022-08-26T23:50:08.450Z,85.98
2022-08-26T23:52:53.872Z,86.55
2022-08-26T23:55:20.439Z,86.19
2022-08-26T23:57:46.861Z,86.11
